Time;durP1;ratioP1;P1;durP2;ratioP2;P2;SDS_P1;SDS_P2;PMS_P1;PMS_P2;Temp;Humidity;BMP_temperature;BMP_pressure;BME280_temperature;BME280_humidity;BME280_pressure;Samples;Min_cycle;Max_cycle;Signal;HPM_P1;HPM_P2
2022/05/10 00:00:56;;;;;;;12.35;4.50;;;18.00;99.90;;;;;;5091892;28;20211;-83
2022/05/10 00:03:32;;;;;;;10.05;4.93;;;18.10;99.90;;;;;;5091387;28;20604;-81
2022/05/10 00:06:03;;;;;;;7.80;4.50;;;18.10;99.90;;;;;;5074340;28;20242;-82
2022/05/10 00:08:34;;;;;;;26.38;17.35;;;18.20;99.90;;;;;;5075486;28;20193;-82
2022/05/10 00:11:05;;;;;;;14.55;7.95;;;18.20;99.90;;;;;;5082656;28;20246;-81
2022/05/10 00:13:35;;;;;;;9.82;5.00;;;18.30;99.90;;;;;;5075774;28;20207;-80
2022/05/10 00:16:08;;;;;;;18.67;10.95;;;18.40;99.90;;;;;;5080880;28;20199;-80
2022/05/10 00:18:39;;;;;;;8.70;3.60;;;18.50;99.90;;;;;;5091781;28;20200;-81
2022/05/10 00:21:11;;;;;;;8.25;3.67;;;18.70;99.90;;;;;;5089514;28;20273;-81
2022/05/10 00:23:42;;;;;;;10.20;4.00;;;18.80;99.90;;;;;;5076627;28;20228;-82
2022/05/10 00:26:13;;;;;;;9.75;3.70;;;18.90;99.90;;;;;;5092119;28;20198;-80
2022/05/10 00:28:43;;;;;;;6.90;2.83;;;19.00;99.90;;;;;;5087095;28;20249;-82
2022/05/10 00:31:17;;;;;;;9.93;3.33;;;19.00;99.90;;;;;;5075981;28;20213;-82
2022/05/10 00:33:48;;;;;;;9.80;2.47;;;19.10;99.90;;;;;;5078396;28;20192;-81
2022/05/10 00:36:23;;;;;;;7.13;2.70;;;19.20;99.90;;;;;;5080492;28;20222;-81
2022/05/10 00:38:54;;;;;;;7.75;2.03;;;19.40;99.90;;;;;;5080706;28;20196;-83
2022/05/10 00:41:31;;;;;;;7.05;2.10;;;19.50;99.90;;;;;;5085838;28;20242;-82
2022/05/10 00:44:07;;;;;;;3.75;1.35;;;19.70;99.90;;;;;;5077678;28;20200;-81
2022/05/10 00:46:44;;;;;;;8.63;1.30;;;19.90;99.90;;;;;;5090093;28;20196;-82
2022/05/10 00:49:22;;;;;;;3.78;0.98;;;20.20;99.90;;;;;;5077714;28;20537;-80
2022/05/10 00:52:00;;;;;;;3.88;0.88;;;20.40;99.90;;;;;;5078715;28;20261;-80
2022/05/10 00:54:36;;;;;;;4.82;0.90;;;20.60;99.90;;;;;;5079475;28;20203;-82
2022/05/10 00:57:17;;;;;;;4.85;0.70;;;20.80;99.90;;;;;;5085143;28;20184;-79
2022/05/10 00:59:56;;;;;;;5.03;0.70;;;20.90;99.90;;;;;;5082573;28;20236;-79
2022/05/10 01:02:40;;;;;;;2.80;0.60;;;20.80;99.90;;;;;;5080885;28;20203;-79
2022/05/10 01:05:16;;;;;;;7.05;1.27;;;20.80;99.90;;;;;;5078185;28;20204;-79
2022/05/10 01:07:52;;;;;;;7.53;1.10;;;20.70;99.90;;;;;;5081712;28;20716;-79
2022/05/10 01:10:34;;;;;;;4.93;0.70;;;20.70;99.90;;;;;;5080720;28;20204;-80
2022/05/10 01:13:10;;;;;;;8.93;0.88;;;20.70;99.90;;;;;;5083127;28;20204;-80
2022/05/10 01:15:45;;;;;;;5.43;0.85;;;20.50;99.90;;;;;;5085138;28;20195;-80
2022/05/10 01:18:22;;;;;;;5.50;0.70;;;20.50;99.90;;;;;;5080381;28;20238;-80
2022/05/10 01:20:56;;;;;;;6.47;0.70;;;20.70;99.90;;;;;;5087656;28;20285;-78
2022/05/10 01:23:52;;;;;;;5.47;0.60;;;20.80;99.90;;;;;;5077995;28;20221;-77
2022/05/10 01:26:31;;;;;;;5.38;0.70;;;20.90;99.90;;;;;;5083909;28;20204;-79
2022/05/10 01:29:08;;;;;;;8.15;0.88;;;21.00;99.90;;;;;;5084005;28;20184;-79
2022/05/10 01:31:46;;;;;;;6.78;1.15;;;21.00;99.90;;;;;;5080153;28;20250;-79
2022/05/10 01:34:20;;;;;;;3.55;0.82;;;21.00;99.90;;;;;;5079370;28;20199;-80
2022/05/10 01:36:59;;;;;;;4.30;0.70;;;20.90;99.90;;;;;;5082287;28;20194;-78
2022/05/10 01:39:33;;;;;;;3.10;0.50;;;20.90;99.90;;;;;;5082672;28;20195;-78
2022/05/10 01:42:10;;;;;;;6.47;0.75;;;20.80;99.90;;;;;;5079456;28;20195;-78
2022/05/10 01:44:49;;;;;;;5.32;0.60;;;20.70;99.90;;;;;;5082455;28;20192;-77
2022/05/10 01:47:26;;;;;;;6.10;0.70;;;20.60;99.90;;;;;;5085643;28;20200;-79
2022/05/10 01:50:04;;;;;;;4.35;0.50;;;20.60;99.90;;;;;;5088679;28;20730;-77
2022/05/10 01:52:39;;;;;;;8.02;0.93;;;20.50;99.90;;;;;;5080434;28;20216;-79
2022/05/10 01:55:27;;;;;;;8.15;1.05;;;20.40;99.90;;;;;;5081348;28;20196;-78
2022/05/10 01:58:02;;;;;;;8.48;0.90;;;20.30;99.90;;;;;;5079706;28;20196;-77
2022/05/10 02:00:36;;;;;;;3.78;0.70;;;20.30;99.90;;;;;;5081380;28;20548;-75
2022/05/10 02:03:15;;;;;;;5.20;0.88;;;20.30;99.90;;;;;;5080074;28;20283;-78
2022/05/10 02:05:53;;;;;;;6.57;0.90;;;20.30;99.90;;;;;;5083709;28;20258;-76
2022/05/10 02:08:34;;;;;;;6.50;0.93;;;20.30;99.90;;;;;;5091210;28;20196;-76
2022/05/10 02:11:11;;;;;;;2.78;0.60;;;20.30;99.90;;;;;;5080086;28;20196;-77
2022/05/10 02:13:48;;;;;;;6.25;0.90;;;20.40;99.90;;;;;;5083497;28;20207;-76
2022/05/10 02:16:27;;;;;;;6.25;1.02;;;20.40;99.90;;;;;;5085868;28;20257;-77
2022/05/10 02:19:05;;;;;;;5.72;0.70;;;20.40;99.90;;;;;;5082901;28;20203;-78
2022/05/10 02:21:40;;;;;;;7.65;0.95;;;20.40;99.90;;;;;;5085019;28;20235;-77
2022/05/10 02:24:16;;;;;;;4.30;0.70;;;20.40;99.90;;;;;;5080743;28;20211;-77
2022/05/10 02:26:52;;;;;;;6.55;0.90;;;20.50;99.90;;;;;;5083430;28;20276;-78
2022/05/10 02:29:30;;;;;;;6.85;0.80;;;20.50;99.90;;;;;;5084122;28;20619;-77
2022/05/10 02:34:59;;;;;;;6.55;1.10;;;20.40;99.90;;;;;;5085999;28;20203;-77
2022/05/10 02:37:30;;;;;;;8.68;1.30;;;20.40;99.90;;;;;;5081747;28;20199;-75
2022/05/10 02:40:02;;;;;;;6.32;1.00;;;20.50;99.90;;;;;;5083399;28;20224;-77
2022/05/10 02:42:34;;;;;;;5.78;1.23;;;20.50;99.90;;;;;;5083125;28;20200;-76
2022/05/10 02:45:07;;;;;;;5.72;0.75;;;20.50;99.90;;;;;;5084293;28;20197;-76
2022/05/10 02:47:44;;;;;;;5.15;0.80;;;20.50;99.90;;;;;;5088814;28;20355;-76
2022/05/10 02:50:30;;;;;;;5.68;0.65;;;20.40;99.90;;;;;;5084163;28;20192;-75
2022/05/10 02:53:01;;;;;;;3.35;0.80;;;20.60;99.90;;;;;;5083715;28;20270;-76
2022/05/10 02:55:38;;;;;;;4.28;0.75;;;20.50;99.90;;;;;;5082939;28;20193;-77
2022/05/10 02:58:14;;;;;;;4.07;0.70;;;20.50;99.90;;;;;;5085727;28;20311;-77
2022/05/10 03:00:45;;;;;;;5.03;0.80;;;20.40;99.90;;;;;;5083714;28;20200;-76
2022/05/10 03:03:20;;;;;;;8.77;0.90;;;20.40;99.90;;;;;;5085082;28;20195;-78
2022/05/10 03:05:50;;;;;;;9.35;1.15;;;20.50;99.90;;;;;;5084376;28;20208;-76
2022/05/10 03:08:21;;;;;;;8.52;0.90;;;20.60;99.90;;;;;;5084748;28;20672;-76
2022/05/10 03:10:51;;;;;;;5.57;1.20;;;20.60;99.90;;;;;;5084493;28;20197;-77
2022/05/10 03:13:22;;;;;;;4.85;0.90;;;20.50;99.90;;;;;;5087167;28;20220;-79
2022/05/10 03:15:53;;;;;;;3.75;0.68;;;20.30;99.90;;;;;;5087025;28;20573;-77
2022/05/10 03:18:25;;;;;;;5.82;0.85;;;20.30;99.90;;;;;;5085138;28;20196;-75
2022/05/10 03:20:56;;;;;;;7.70;0.93;;;20.20;99.90;;;;;;5083841;28;20197;-77
2022/05/10 03:23:27;;;;;;;6.68;0.75;;;20.20;99.90;;;;;;5084733;28;20560;-76
2022/05/10 03:25:58;;;;;;;2.80;0.50;;;20.20;99.90;;;;;;5080517;28;20216;-76
2022/05/10 03:28:29;;;;;;;5.38;0.77;;;20.20;99.90;;;;;;5081274;28;20249;-75
2022/05/10 03:31:00;;;;;;;6.15;0.60;;;20.20;99.90;;;;;;5082546;28;20200;-74
2022/05/10 03:33:33;;;;;;;5.30;0.95;;;20.30;99.90;;;;;;5082199;28;20220;-74
2022/05/10 03:36:03;;;;;;;3.30;0.60;;;20.30;99.90;;;;;;5083340;28;20243;-75
2022/05/10 03:38:35;;;;;;;6.47;0.75;;;20.30;99.90;;;;;;5083205;28;20599;-74
2022/05/10 03:41:06;;;;;;;5.28;0.60;;;20.40;99.90;;;;;;5081210;28;20267;-74
2022/05/10 03:43:37;;;;;;;3.78;0.60;;;20.60;99.90;;;;;;5083140;28;20189;-75
2022/05/10 03:46:10;;;;;;;6.95;0.90;;;20.60;99.90;;;;;;5085962;28;20230;-74
2022/05/10 03:48:44;;;;;;;2.65;0.60;;;20.70;99.90;;;;;;5079308;28;20246;-74
2022/05/10 03:51:15;;;;;;;5.25;0.73;;;20.70;99.90;;;;;;5085225;28;20198;-75
2022/05/10 03:53:46;;;;;;;5.15;0.70;;;20.70;99.90;;;;;;5083395;28;20247;-75
2022/05/10 03:56:16;;;;;;;4.82;0.82;;;20.70;99.90;;;;;;5083869;28;20238;-75
2022/05/10 03:58:47;;;;;;;3.42;0.57;;;20.80;99.90;;;;;;5081771;28;20699;-74
2022/05/10 04:01:19;;;;;;;3.40;0.45;;;20.70;99.90;;;;;;5080324;28;20529;-75
2022/05/10 04:03:52;;;;;;;3.60;0.80;;;20.50;99.90;;;;;;5086747;28;20211;-76
2022/05/10 04:06:23;;;;;;;4.95;0.93;;;20.30;99.90;;;;;;5084494;28;20651;-77
2022/05/10 04:08:53;;;;;;;2.97;0.60;;;20.20;99.90;;;;;;5084701;28;20185;-75
2022/05/10 04:11:24;;;;;;;2.03;0.60;;;20.10;99.90;;;;;;5084623;28;20240;-76
2022/05/10 04:13:55;;;;;;;2.75;0.60;;;20.00;99.90;;;;;;5076923;28;20305;-75
2022/05/10 04:16:25;;;;;;;3.10;0.60;;;20.10;99.90;;;;;;5081193;28;20667;-75
2022/05/10 04:18:58;;;;;;;3.13;0.68;;;20.10;99.90;;;;;;5083091;28;20203;-75
2022/05/10 04:21:29;;;;;;;3.92;0.75;;;20.10;99.90;;;;;;5084451;28;20192;-76
2022/05/10 04:23:59;;;;;;;2.95;0.60;;;20.10;99.90;;;;;;5081991;28;20741;-75
2022/05/10 04:26:30;;;;;;;1.80;0.50;;;20.10;99.90;;;;;;5078936;28;20224;-75
2022/05/10 04:29:01;;;;;;;6.25;0.70;;;20.10;99.90;;;;;;5083407;28;20180;-75
2022/05/10 04:31:31;;;;;;;3.55;0.70;;;20.30;99.90;;;;;;5079956;28;20200;-76
2022/05/10 04:34:04;;;;;;;4.32;0.70;;;20.50;99.90;;;;;;5083339;28;20215;-76
2022/05/10 04:36:35;;;;;;;7.10;0.60;;;20.60;99.90;;;;;;5081335;28;20197;-74
2022/05/10 04:39:06;;;;;;;7.20;0.70;;;20.70;99.90;;;;;;5083134;28;20189;-74
2022/05/10 04:41:38;;;;;;;2.42;0.60;;;20.70;99.90;;;;;;5080967;28;20270;-74
2022/05/10 04:44:10;;;;;;;3.72;0.60;;;20.70;99.90;;;;;;5085241;28;20249;-72
2022/05/10 04:46:43;;;;;;;3.72;0.60;;;20.90;99.90;;;;;;5082864;28;20238;-74
2022/05/10 04:49:16;;;;;;;5.22;0.65;;;20.80;99.90;;;;;;5084425;28;20193;-74
2022/05/10 04:51:47;;;;;;;1.63;0.50;;;20.60;99.90;;;;;;5081319;28;20647;-74
2022/05/10 04:54:18;;;;;;;3.10;0.70;;;20.40;99.90;;;;;;5082665;28;20277;-75
2022/05/10 04:56:48;;;;;;;6.70;0.75;;;20.40;99.90;;;;;;5081854;28;20556;-75
2022/05/10 04:59:20;;;;;;;2.72;0.55;;;20.40;99.90;;;;;;5079995;28;20239;-74
2022/05/10 05:01:50;;;;;;;2.05;0.30;;;20.50;99.90;;;;;;5080872;28;20185;-74
2022/05/10 05:04:23;;;;;;;4.47;0.80;;;20.40;99.90;;;;;;5070221;28;20200;-74
2022/05/10 05:06:53;;;;;;;3.40;0.60;;;20.30;99.90;;;;;;5081705;28;20193;-74
2022/05/10 05:09:24;;;;;;;3.90;0.75;;;20.10;99.90;;;;;;5080514;28;20185;-76
2022/05/10 05:11:54;;;;;;;6.35;0.73;;;20.00;99.90;;;;;;5085786;28;20207;-74
2022/05/10 05:14:25;;;;;;;4.38;0.60;;;19.90;99.90;;;;;;5080996;28;20242;-77
2022/05/10 05:16:56;;;;;;;7.05;0.73;;;19.80;99.90;;;;;;5079345;28;20201;-74
2022/05/10 05:19:29;;;;;;;2.67;0.52;;;19.80;99.90;;;;;;5082878;28;20602;-74
2022/05/10 05:21:59;;;;;;;4.18;0.50;;;19.80;99.90;;;;;;5076670;28;20530;-76
2022/05/10 05:24:30;;;;;;;3.85;0.47;;;19.80;99.90;;;;;;5085570;28;20234;-75
2022/05/10 05:27:00;;;;;;;2.67;0.63;;;19.80;99.90;;;;;;5081767;28;20222;-74
2022/05/10 05:29:31;;;;;;;3.17;0.65;;;19.80;99.90;;;;;;5085441;28;20605;-75
2022/05/10 05:32:06;;;;;;;5.50;0.80;;;19.70;99.90;;;;;;5077225;28;20643;-74
2022/05/10 05:34:39;;;;;;;4.32;0.70;;;19.80;99.90;;;;;;5084322;28;20188;-74
2022/05/10 05:39:56;;;;;;;3.80;1.00;;;20.00;99.90;;;;;;5080844;28;20206;-75
2022/05/10 05:42:27;;;;;;;4.97;0.57;;;20.00;99.90;;;;;;5080043;28;20561;-74
2022/05/10 05:44:58;;;;;;;4.28;0.77;;;20.00;99.90;;;;;;5092838;28;20196;-74
2022/05/10 05:47:29;;;;;;;2.20;0.70;;;19.90;99.90;;;;;;5078066;28;20201;-74
2022/05/10 05:50:02;;;;;;;7.65;0.85;;;19.90;99.90;;;;;;5078387;28;20528;-74
2022/05/10 05:52:32;;;;;;;2.60;0.50;;;19.80;99.90;;;;;;5076345;28;20216;-75
2022/05/10 05:55:03;;;;;;;6.22;0.57;;;19.80;99.90;;;;;;5079056;28;20197;-75
2022/05/10 05:57:34;;;;;;;4.03;0.52;;;19.60;99.90;;;;;;5092957;28;20189;-75
2022/05/10 06:00:06;;;;;;;4.90;0.52;;;19.70;99.90;;;;;;5090934;28;20232;-73
2022/05/10 06:02:38;;;;;;;4.32;0.60;;;19.60;99.90;;;;;;5072029;28;20200;-77
2022/05/10 06:05:11;;;;;;;4.93;0.65;;;19.60;99.90;;;;;;5072515;28;20434;-75
2022/05/10 06:07:42;;;;;;;6.95;0.70;;;19.60;99.90;;;;;;5087032;28;20652;-75
2022/05/10 06:10:14;;;;;;;3.15;0.52;;;19.60;99.90;;;;;;5081048;28;20185;-74
2022/05/10 06:12:45;;;;;;;2.85;0.60;;;19.50;99.90;;;;;;5076483;28;20209;-75
2022/05/10 06:15:19;;;;;;;3.35;1.05;;;19.50;99.90;;;;;;5089674;28;20208;-75
2022/05/10 06:17:51;;;;;;;5.53;0.85;;;19.50;99.90;;;;;;5092702;28;20530;-75
2022/05/10 06:20:24;;;;;;;3.80;0.60;;;19.50;99.90;;;;;;5079172;28;20205;-74
2022/05/10 06:22:55;;;;;;;4.80;0.55;;;19.50;99.90;;;;;;5072471;28;20240;-75
2022/05/10 06:25:27;;;;;;;2.70;0.50;;;19.40;99.90;;;;;;5085619;28;20228;-75
2022/05/10 06:27:58;;;;;;;3.85;0.70;;;19.40;99.90;;;;;;5088107;28;20200;-75
2022/05/10 06:30:29;;;;;;;6.30;0.68;;;19.40;99.90;;;;;;5081473;28;20242;-74
2022/05/10 06:33:01;;;;;;;4.03;0.60;;;19.40;99.90;;;;;;5076852;28;20227;-75
2022/05/10 06:35:33;;;;;;;3.20;0.70;;;19.30;99.90;;;;;;5081099;28;20212;-75
2022/05/10 06:38:24;;;;;;;3.95;0.50;;;19.30;99.90;;;;;;5094892;28;20559;-75
2022/05/10 06:40:55;;;;;;;4.75;0.65;;;19.30;99.90;;;;;;5087712;28;20204;-75
2022/05/10 06:43:26;;;;;;;5.45;0.60;;;19.30;99.90;;;;;;5095030;28;20651;-76
2022/05/10 06:45:57;;;;;;;2.78;0.40;;;19.30;99.90;;;;;;5091751;28;20207;-75
2022/05/10 06:48:28;;;;;;;3.90;0.60;;;19.20;99.90;;;;;;5095838;28;20697;-74
2022/05/10 06:51:01;;;;;;;4.35;0.70;;;19.20;99.90;;;;;;5080349;28;20189;-74
2022/05/10 06:53:31;;;;;;;2.05;0.50;;;19.10;99.90;;;;;;5085371;28;20216;-76
2022/05/10 06:56:02;;;;;;;2.65;0.60;;;19.00;99.90;;;;;;5077988;28;20201;-74
2022/05/10 06:58:33;;;;;;;5.57;0.90;;;18.90;99.90;;;;;;5079441;28;20699;-74
2022/05/10 07:01:04;;;;;;;2.88;0.70;;;18.90;99.90;;;;;;5076888;28;20616;-74
2022/05/10 07:03:36;;;;;;;3.60;0.60;;;18.90;99.90;;;;;;5086190;28;20201;-74
2022/05/10 07:06:11;;;;;;;3.97;0.75;;;18.80;99.90;;;;;;5076848;28;20189;-74
2022/05/10 07:08:41;;;;;;;5.65;0.73;;;18.80;99.90;;;;;;5092143;28;20566;-74
2022/05/10 07:11:12;;;;;;;3.78;0.68;;;18.80;99.90;;;;;;5091708;28;20200;-74
2022/05/10 07:13:43;;;;;;;1.55;0.43;;;18.80;99.90;;;;;;5073704;28;20216;-74
2022/05/10 07:16:14;;;;;;;4.93;0.63;;;18.70;99.90;;;;;;5082058;28;20192;-74
2022/05/10 07:18:44;;;;;;;4.10;0.73;;;18.70;99.90;;;;;;5081879;28;20544;-74
2022/05/10 07:21:17;;;;;;;5.95;0.63;;;18.70;99.90;;;;;;5085285;28;20670;-74
2022/05/10 07:23:48;;;;;;;4.68;0.80;;;18.70;99.90;;;;;;5090924;28;20199;-74
2022/05/10 07:26:19;;;;;;;3.47;0.63;;;18.70;99.90;;;;;;5085474;28;20254;-74
2022/05/10 07:28:49;;;;;;;8.07;1.20;;;18.70;99.90;;;;;;5084718;28;20306;-74
2022/05/10 07:31:20;;;;;;;3.33;1.00;;;18.70;99.90;;;;;;5093653;28;20655;-74
2022/05/10 07:33:51;;;;;;;3.70;0.70;;;18.60;99.90;;;;;;5086060;28;20236;-73
2022/05/10 07:36:28;;;;;;;2.85;0.70;;;18.60;99.90;;;;;;5082091;28;20197;-74
2022/05/10 07:38:59;;;;;;;3.42;0.82;;;18.60;99.90;;;;;;5081130;28;20192;-77
2022/05/10 07:41:30;;;;;;;5.78;0.77;;;18.60;99.90;;;;;;5085418;28;20655;-74
2022/05/10 07:44:01;;;;;;;3.65;0.60;;;18.60;99.90;;;;;;5079442;28;20200;-74
2022/05/10 07:46:31;;;;;;;3.35;0.98;;;18.60;99.90;;;;;;5088682;28;20205;-74
2022/05/10 07:49:02;;;;;;;6.43;0.70;;;18.50;99.90;;;;;;5075190;28;20204;-74
2022/05/10 07:51:35;;;;;;;5.30;0.73;;;18.50;99.90;;;;;;5086252;28;20204;-73
2022/05/10 07:54:05;;;;;;;2.08;0.68;;;18.50;99.90;;;;;;5083893;28;20208;-75
2022/05/10 07:56:37;;;;;;;3.00;0.50;;;18.50;99.90;;;;;;5075945;28;20197;-73
2022/05/10 07:59:08;;;;;;;3.75;0.73;;;18.60;99.90;;;;;;5090526;28;20236;-74
2022/05/10 08:01:39;;;;;;;3.22;0.70;;;18.60;99.90;;;;;;5091512;28;20655;-73
2022/05/10 08:04:10;;;;;;;2.65;0.52;;;18.60;99.90;;;;;;5076008;28;20294;-75
2022/05/10 08:06:42;;;;;;;6.20;0.75;;;18.60;99.90;;;;;;5088504;28;20717;-74
2022/05/10 08:09:13;;;;;;;5.00;0.68;;;18.60;99.90;;;;;;5090990;28;20197;-73
2022/05/10 08:11:43;;;;;;;4.15;0.70;;;18.60;99.90;;;;;;5090967;28;20200;-73
2022/05/10 08:14:14;;;;;;;8.63;0.90;;;18.50;99.90;;;;;;5082715;28;20220;-74
2022/05/10 08:16:46;;;;;;;2.38;0.70;;;18.40;99.90;;;;;;5074384;28;20279;-75
2022/05/10 08:19:16;;;;;;;2.65;0.70;;;18.40;99.90;;;;;;5090676;28;20188;-76
2022/05/10 08:21:49;;;;;;;3.13;0.80;;;18.30;99.90;;;;;;5085920;28;20218;-74
2022/05/10 08:24:20;;;;;;;3.83;0.60;;;18.30;99.90;;;;;;5081765;28;20215;-77
2022/05/10 08:26:51;;;;;;;4.43;0.70;;;18.20;99.90;;;;;;5081584;28;20590;-76
2022/05/10 08:29:22;;;;;;;2.78;0.70;;;18.20;99.90;;;;;;5080284;28;20201;-76
2022/05/10 08:31:52;;;;;;;4.70;0.73;;;18.20;99.90;;;;;;5082346;28;20204;-74
2022/05/10 08:34:23;;;;;;;3.70;0.80;;;18.20;99.90;;;;;;5079214;28;20614;-74
2022/05/10 08:36:56;;;;;;;4.18;0.80;;;18.10;99.90;;;;;;5075389;28;20271;-73
2022/05/10 08:39:26;;;;;;;3.78;0.63;;;18.10;99.90;;;;;;5073107;28;20193;-76
2022/05/10 08:42:01;;;;;;;2.45;0.60;;;18.10;99.90;;;;;;5076002;28;20562;-76
2022/05/10 08:44:35;;;;;;;4.50;0.80;;;18.20;99.90;;;;;;5072397;28;20195;-74
2022/05/10 08:47:07;;;;;;;3.05;0.75;;;18.20;99.90;;;;;;5092696;28;20196;-77
2022/05/10 08:49:41;;;;;;;3.17;0.70;;;18.10;99.90;;;;;;5085651;28;20189;-76
2022/05/10 08:52:16;;;;;;;2.88;0.75;;;18.10;99.90;;;;;;5088756;28;20604;-75
2022/05/10 08:54:47;;;;;;;4.50;0.90;;;18.10;99.90;;;;;;5086508;28;20219;-74
2022/05/10 08:57:23;;;;;;;4.95;0.77;;;18.10;99.90;;;;;;5092672;28;20189;-76
2022/05/10 09:00:01;;;;;;;2.83;0.50;;;18.10;99.90;;;;;;5080427;28;20242;-76
2022/05/10 09:02:38;;;;;;;4.05;1.00;;;18.10;99.90;;;;;;5073263;28;20197;-76
2022/05/10 09:05:14;;;;;;;2.50;0.70;;;18.10;99.90;;;;;;5074946;28;20208;-76
2022/05/10 09:07:53;;;;;;;3.10;0.50;;;18.10;99.90;;;;;;5082575;28;20205;-76
2022/05/10 09:10:30;;;;;;;5.18;0.73;;;18.20;99.90;;;;;;5079392;28;20192;-77
2022/05/10 09:13:08;;;;;;;3.03;0.80;;;18.20;99.90;;;;;;5092547;28;20207;-77
2022/05/10 09:15:40;;;;;;;3.33;0.95;;;18.10;99.90;;;;;;5090560;28;20204;-77
2022/05/10 09:18:21;;;;;;;5.40;0.90;;;18.10;99.90;;;;;;5082218;28;20189;-75
2022/05/10 09:21:02;;;;;;;2.03;0.75;;;18.00;99.90;;;;;;5073100;28;20588;-77
2022/05/10 09:23:47;;;;;;;2.05;0.73;;;18.00;99.90;;;;;;5077144;28;20200;-76
2022/05/10 09:26:18;;;;;;;2.85;0.70;;;18.00;99.90;;;;;;5088723;28;20311;-75
2022/05/10 09:28:53;;;;;;;5.22;0.90;;;18.00;99.90;;;;;;5078804;28;20196;-76
2022/05/10 09:37:23;;;;;;;3.03;0.80;;;17.90;99.90;;;;;;5082803;28;20203;-74
2022/05/10 09:40:10;;;;;;;2.92;0.73;;;17.90;99.90;;;;;;5079002;28;20200;-75
2022/05/10 09:42:42;;;;;;;1.63;0.35;;;17.90;99.90;;;;;;5091983;28;20249;-75
2022/05/10 09:45:18;;;;;;;3.05;0.75;;;17.90;99.90;;;;;;5076056;28;20209;-75
2022/05/10 09:48:00;;;;;;;3.45;1.08;;;17.90;99.90;;;;;;5084329;28;20227;-75
2022/05/10 09:50:33;;;;;;;2.78;0.63;;;17.90;99.90;;;;;;5081362;28;20579;-75
2022/05/10 09:53:28;;;;;;;2.30;0.90;;;17.90;99.90;;;;;;5076866;28;20196;-74
2022/05/10 09:56:03;;;;;;;4.65;0.80;;;17.90;99.90;;;;;;5071039;28;20571;-75
2022/05/10 09:58:36;;;;;;;2.28;0.75;;;17.80;99.90;;;;;;5082906;28;20758;-76
2022/05/10 10:01:11;;;;;;;3.22;0.80;;;17.80;99.90;;;;;;5085053;28;20200;-76
2022/05/10 10:03:43;;;;;;;4.03;0.90;;;17.70;99.90;;;;;;5079078;28;20543;-75
2022/05/10 10:06:18;;;;;;;2.58;0.80;;;17.70;99.90;;;;;;5082345;28;20235;-76
2022/05/10 10:08:53;;;;;;;3.95;0.98;;;17.70;99.90;;;;;;5086399;28;20588;-76
2022/05/10 10:11:34;;;;;;;2.45;0.90;;;17.70;99.90;;;;;;5082194;28;20289;-76
2022/05/10 10:14:06;;;;;;;2.72;0.90;;;17.60;99.90;;;;;;5088007;28;20212;-77
2022/05/10 10:16:48;;;;;;;3.55;0.95;;;17.60;99.90;;;;;;5083712;28;20286;-75
2022/05/10 10:19:43;;;;;;;4.82;0.98;;;17.60;99.90;;;;;;5089486;28;20586;-76
2022/05/10 10:22:16;;;;;;;3.20;0.80;;;17.50;99.90;;;;;;5081300;28;20200;-75
2022/05/10 10:24:50;;;;;;;5.07;0.80;;;17.50;99.90;;;;;;5088777;28;20347;-75
2022/05/10 10:27:30;;;;;;;4.90;1.10;;;17.50;99.90;;;;;;5083428;28;20678;-75
2022/05/10 10:30:06;;;;;;;3.20;0.80;;;17.50;99.90;;;;;;5079747;28;20597;-77
2022/05/10 10:32:41;;;;;;;4.85;1.02;;;17.50;99.90;;;;;;5083804;28;20203;-76
2022/05/10 10:35:19;;;;;;;8.48;1.10;;;17.60;99.90;;;;;;5081460;28;20214;-76
2022/05/10 10:37:54;;;;;;;3.80;0.90;;;17.60;99.90;;;;;;5080787;28;20197;-75
2022/05/10 10:40:34;;;;;;;4.85;0.77;;;17.60;99.90;;;;;;5079957;28;20196;-76
2022/05/10 10:43:18;;;;;;;1.83;0.60;;;17.60;99.90;;;;;;5080818;28;20196;-75
2022/05/10 10:45:51;;;;;;;3.15;0.75;;;17.70;99.90;;;;;;5085805;28;20204;-75
2022/05/10 10:48:31;;;;;;;11.07;1.67;;;17.60;99.90;;;;;;5078135;28;20200;-76
2022/05/10 10:51:02;;;;;;;3.03;0.77;;;17.70;99.90;;;;;;5086805;28;20249;-77
2022/05/10 10:53:34;;;;;;;3.10;0.68;;;17.60;99.90;;;;;;5088750;28;20241;-75
2022/05/10 10:56:22;;;;;;;5.38;0.70;;;17.60;99.90;;;;;;5083522;28;20211;-75
2022/05/10 10:59:09;;;;;;;3.22;0.70;;;17.50;99.90;;;;;;5081831;28;20232;-76
2022/05/10 11:01:56;;;;;;;1.88;0.75;;;17.60;99.90;;;;;;5082167;28;20201;-74
2022/05/10 11:05:11;;;;;;;5.65;1.80;;;17.50;99.90;;;;;;5083130;28;20615;-76
2022/05/10 11:07:51;;;;;;;5.85;1.42;;;17.50;99.90;;;;;;5079681;28;20227;-75
2022/05/10 11:10:27;;;;;;;5.10;0.80;;;17.40;99.90;;;;;;5083584;28;20193;-76
2022/05/10 11:13:04;;;;;;;4.68;0.90;;;17.40;99.90;;;;;;5078668;28;20207;-75
2022/05/10 11:15:49;;;;;;;3.40;1.00;;;17.40;99.90;;;;;;5085920;28;20222;-75
2022/05/10 11:18:43;;;;;;;5.57;1.30;;;17.40;99.90;;;;;;5077248;28;20223;-76
2022/05/10 11:21:30;;;;;;;3.33;0.82;;;17.30;99.90;;;;;;5078957;28;20222;-75
2022/05/10 11:24:10;;;;;;;3.92;0.80;;;17.30;99.90;;;;;;5082274;28;20180;-76
2022/05/10 11:27:00;;;;;;;2.42;0.70;;;17.30;99.90;;;;;;5078623;28;20219;-75
2022/05/10 11:29:49;;;;;;;2.95;0.65;;;17.20;99.90;;;;;;5080949;28;20234;-76
2022/05/10 11:32:32;;;;;;;6.45;1.00;;;17.30;99.90;;;;;;5082042;28;20200;-75
2022/05/10 11:35:36;;;;;;;3.85;0.80;;;17.20;99.90;;;;;;5081589;28;20710;-76
2022/05/10 11:38:11;;;;;;;2.50;0.80;;;17.20;99.90;;;;;;5079162;28;20200;-76
2022/05/10 11:40:58;;;;;;;2.92;0.70;;;17.20;99.90;;;;;;5083462;28;20193;-75
2022/05/10 11:44:05;;;;;;;3.55;0.70;;;17.20;99.90;;;;;;5080942;28;20193;-75
2022/05/10 11:47:08;;;;;;;4.18;0.60;;;17.20;99.90;;;;;;5046256;28;20208;-75
2022/05/10 11:50:11;;;;;;;2.53;0.50;;;17.30;99.90;;;;;;5080516;28;20200;-76
2022/05/10 11:53:06;;;;;;;1.63;0.50;;;17.40;99.90;;;;;;5065180;28;20215;-76
2022/05/10 11:55:39;;;;;;;2.60;0.50;;;17.50;99.90;;;;;;5080221;28;20824;-75
2022/05/10 11:58:12;;;;;;;2.10;0.60;;;17.60;99.90;;;;;;5076110;28;20232;-77
2022/05/10 12:00:54;;;;;;;5.88;0.85;;;17.60;99.90;;;;;;5060426;28;20201;-75
2022/05/10 12:03:53;;;;;;;2.10;0.38;;;17.70;99.90;;;;;;5058117;28;20205;-75
2022/05/10 12:06:46;;;;;;;3.50;0.50;;;17.80;99.90;;;;;;5064698;28;20718;-76
2022/05/10 12:10:09;;;;;;;4.22;0.50;;;17.80;99.90;;;;;;5059935;28;20205;-76
2022/05/10 12:13:02;;;;;;;3.15;0.55;;;17.80;99.90;;;;;;4970802;28;20214;-75
2022/05/10 12:21:26;;;;;;;2.70;0.47;;;17.90;99.90;;;;;;5056180;28;20205;-75
2022/05/10 12:24:13;;;;;;;3.55;0.73;;;18.00;99.90;;;;;;5061570;28;20201;-74
2022/05/10 12:26:49;;;;;;;2.47;0.50;;;18.10;99.90;;;;;;5060362;28;20212;-75
2022/05/10 12:30:07;;;;;;;3.90;0.52;;;18.20;99.90;;;;;;5057437;28;20201;-75
2022/05/10 12:32:48;;;;;;;4.50;0.60;;;18.20;99.90;;;;;;5059078;28;20201;-76
2022/05/10 12:35:37;;;;;;;4.93;0.40;;;18.10;99.90;;;;;;5063190;28;20213;-74
2022/05/10 12:38:08;;;;;;;3.90;0.45;;;18.20;99.90;;;;;;5045429;28;20198;-75
2022/05/10 12:41:12;;;;;;;2.67;0.60;;;18.20;99.90;;;;;;5059754;28;20285;-75
2022/05/10 12:44:15;;;;;;;4.47;0.50;;;18.20;99.90;;;;;;5060658;28;20255;-75
2022/05/10 12:47:02;;;;;;;3.95;0.50;;;18.30;99.90;;;;;;5056409;28;20197;-76
2022/05/10 12:49:45;;;;;;;3.83;0.68;;;18.30;99.90;;;;;;5062080;28;20193;-75
2022/05/10 12:52:38;;;;;;;4.22;0.40;;;18.30;99.90;;;;;;5061464;28;20208;-74
2022/05/10 12:55:12;;;;;;;6.10;0.60;;;18.40;99.90;;;;;;5055251;28;20220;-75
2022/05/10 12:57:48;;;;;;;1.95;0.30;;;18.40;99.90;;;;;;5055143;28;20193;-76
2022/05/10 13:00:25;;;;;;;3.53;0.55;;;18.30;99.90;;;;;;5078661;28;20196;-75
2022/05/10 13:03:02;;;;;;;3.03;0.40;;;18.40;99.90;;;;;;5080543;28;20196;-76
2022/05/10 13:05:59;;;;;;;3.63;0.50;;;18.40;99.90;;;;;;5078435;28;20534;-76
2022/05/10 13:09:02;;;;;;;3.08;0.30;;;18.40;99.90;;;;;;5076420;28;20723;-76
2022/05/10 13:11:40;;;;;;;4.75;0.63;;;18.40;99.90;;;;;;5081724;28;20651;-76
2022/05/10 13:14:11;;;;;;;2.50;0.40;;;18.40;99.90;;;;;;5078887;28;20279;-74
2022/05/10 13:16:51;;;;;;;2.50;0.60;;;18.40;99.90;;;;;;5079816;28;20211;-77
2022/05/10 13:19:23;;;;;;;4.85;0.40;;;18.40;99.90;;;;;;5081409;28;20199;-76
2022/05/10 13:21:55;;;;;;;5.07;0.40;;;18.40;99.90;;;;;;5079169;28;21112;-72
2022/05/10 13:24:28;;;;;;;1.58;0.40;;;18.40;99.90;;;;;;5082754;28;20565;-78
2022/05/10 13:27:01;;;;;;;6.38;0.80;;;18.40;99.90;;;;;;5077032;28;20849;-75
2022/05/10 13:29:45;;;;;;;2.63;0.57;;;18.30;99.90;;;;;;5075206;28;20236;-75
2022/05/10 13:32:31;;;;;;;4.25;0.68;;;18.20;99.90;;;;;;5080022;28;20204;-77
2022/05/10 13:35:08;;;;;;;4.15;0.70;;;18.10;99.90;;;;;;5079425;28;20208;-77
2022/05/10 13:37:40;;;;;;;2.47;0.73;;;17.90;99.90;;;;;;5080998;28;20196;-76
2022/05/10 13:40:16;;;;;;;5.32;0.73;;;17.80;99.90;;;;;;5083683;28;20192;-78
2022/05/10 13:42:48;;;;;;;3.22;0.70;;;17.70;99.90;;;;;;5085068;28;20266;-77
2022/05/10 13:45:25;;;;;;;3.13;0.63;;;17.60;99.90;;;;;;5080522;28;20189;-77
2022/05/10 13:48:04;;;;;;;4.75;0.55;;;17.50;99.90;;;;;;5086686;28;20196;-76